createdAt,value
2023-01-22T00:02:15.311Z,11.23
2023-01-22T00:04:42.063Z,8.30
2023-01-22T00:07:08.727Z,9.70
2023-01-22T00:09:35.429Z,13.40
2023-01-22T00:12:02.242Z,14.20
2023-01-22T00:14:29.085Z,15.47
2023-01-22T00:16:56.005Z,14.50
2023-01-22T00:19:22.696Z,10.10
2023-01-22T00:21:49.388Z,10.97
2023-01-22T00:24:16.122Z,11.00
2023-01-22T00:26:42.876Z,13.80
2023-01-22T00:29:09.567Z,10.20
2023-01-22T00:31:37.487Z,12.90
2023-01-22T00:34:04.556Z,15.17
2023-01-22T00:36:31.255Z,9.80
2023-01-22T00:38:58.462Z,7.90
2023-01-22T00:41:25.127Z,10.33
2023-01-22T00:43:53.004Z,13.30
2023-01-22T00:46:20.153Z,11.37
2023-01-22T00:48:49.474Z,12.10
2023-01-22T00:51:16.390Z,8.40
2023-01-22T00:53:46.167Z,10.30
2023-01-22T00:56:14.526Z,10.80
2023-01-22T00:58:41.603Z,11.90
2023-01-22T01:01:08.752Z,11.43
2023-01-22T01:03:36.721Z,10.00
2023-01-22T01:06:22.507Z,10.47
2023-01-22T01:08:50.228Z,8.00
2023-01-22T01:11:21.897Z,11.87
2023-01-22T01:13:49.782Z,7.63
2023-01-22T01:16:22.230Z,9.00
2023-01-22T01:18:49.508Z,8.87
2023-01-22T01:21:17.230Z,9.07
2023-01-22T01:23:44.151Z,11.60
2023-01-22T01:26:13.211Z,10.73
2023-01-22T01:28:41.528Z,9.27
2023-01-22T01:31:12.475Z,8.50
2023-01-22T01:33:39.638Z,8.10
2023-01-22T01:36:35.407Z,17.63
2023-01-22T01:39:07.472Z,10.10
2023-01-22T01:41:34.144Z,15.20
2023-01-22T01:44:19.347Z,11.27
2023-01-22T01:47:01.227Z,9.73
2023-01-22T01:49:36.525Z,13.00
2023-01-22T01:52:07.984Z,13.90
2023-01-22T01:54:35.511Z,10.97
2023-01-22T01:57:08.605Z,10.70
2023-01-22T01:59:35.903Z,7.97
2023-01-22T02:02:03.892Z,10.90
2023-01-22T02:04:31.142Z,9.60
2023-01-22T02:06:57.865Z,14.67
2023-01-22T02:09:24.586Z,12.60
2023-01-22T02:11:52.009Z,12.00
2023-01-22T02:14:22.692Z,13.53
2023-01-22T02:17:11.679Z,15.97
2023-01-22T02:19:41.969Z,17.53
2023-01-22T02:22:29.995Z,24.47
2023-01-22T02:24:57.181Z,17.70
2023-01-22T02:27:24.548Z,16.43
2023-01-22T02:29:51.679Z,14.43
2023-01-22T02:32:18.382Z,13.00
2023-01-22T02:34:45.221Z,8.00
2023-01-22T02:37:12.275Z,4.33
2023-01-22T02:39:39.141Z,3.97
2023-01-22T02:42:06.563Z,7.50
2023-01-22T02:44:33.373Z,5.67
2023-01-22T02:47:00.357Z,15.63
2023-01-22T02:49:27.026Z,5.30
2023-01-22T02:51:53.800Z,4.13
2023-01-22T02:54:20.718Z,4.00
2023-01-22T02:56:47.382Z,4.03
2023-01-22T02:59:14.205Z,3.63
2023-01-22T03:01:40.931Z,3.97
2023-01-22T03:04:13.587Z,3.73
2023-01-22T03:06:43.054Z,4.70
2023-01-22T03:09:10.850Z,3.93
2023-01-22T03:11:39.357Z,3.83
2023-01-22T03:14:24.837Z,4.27
2023-01-22T03:17:10.759Z,4.00
2023-01-22T03:19:56.086Z,3.50
2023-01-22T03:22:22.937Z,3.47
2023-01-22T03:24:53.121Z,4.30
2023-01-22T03:27:21.977Z,3.83
2023-01-22T03:29:48.947Z,3.37
2023-01-22T03:32:16.562Z,3.70
2023-01-22T03:34:43.293Z,3.73
2023-01-22T03:37:12.839Z,3.47
2023-01-22T03:39:40.421Z,4.00
2023-01-22T03:42:07.598Z,3.43
2023-01-22T03:44:34.308Z,4.03
2023-01-22T03:47:01.218Z,3.57
2023-01-22T03:49:27.929Z,3.20
2023-01-22T03:51:55.411Z,3.37
2023-01-22T03:54:22.085Z,3.30
2023-01-22T03:56:48.775Z,2.93
2023-01-22T03:59:15.412Z,3.77
2023-01-22T04:01:42.076Z,3.47
2023-01-22T04:04:08.806Z,2.97
2023-01-22T04:06:35.556Z,3.10
2023-01-22T04:09:02.303Z,2.93
2023-01-22T04:11:29.003Z,7.27
2023-01-22T04:13:56.752Z,4.00
2023-01-22T04:16:23.536Z,3.30
2023-01-22T04:18:50.639Z,3.80
2023-01-22T04:21:17.451Z,2.63
2023-01-22T04:23:44.143Z,2.93
2023-01-22T04:26:10.834Z,4.70
2023-01-22T04:28:37.539Z,5.57
2023-01-22T04:31:04.814Z,7.53
2023-01-22T04:33:32.119Z,6.13
2023-01-22T04:35:58.865Z,4.90
2023-01-22T04:38:25.908Z,3.60
2023-01-22T04:40:52.594Z,24.50
2023-01-22T04:43:19.253Z,17.63
2023-01-22T04:45:45.985Z,13.20
2023-01-22T04:48:14.012Z,12.90
2023-01-22T04:50:40.782Z,11.60
2023-01-22T04:53:07.437Z,10.20
2023-01-22T04:55:34.190Z,7.57
2023-01-22T04:58:02.136Z,14.20
2023-01-22T05:00:30.557Z,10.40
2023-01-22T05:02:59.283Z,7.47
2023-01-22T05:05:26.872Z,6.00
2023-01-22T05:07:53.906Z,5.27
2023-01-22T05:10:21.273Z,5.50
2023-01-22T05:12:48.665Z,5.30
2023-01-22T05:15:24.184Z,5.40
2023-01-22T05:17:52.557Z,3.90
2023-01-22T05:20:19.554Z,7.40
2023-01-22T05:22:46.306Z,8.47
2023-01-22T05:25:13.469Z,4.40
2023-01-22T05:27:40.619Z,3.70
2023-01-22T05:30:08.743Z,3.17
2023-01-22T05:32:35.719Z,3.27
2023-01-22T05:35:03.069Z,6.07
2023-01-22T05:37:31.476Z,10.50
2023-01-22T05:39:58.191Z,10.10
2023-01-22T05:42:24.988Z,6.00
2023-01-22T05:44:51.627Z,4.97
2023-01-22T05:47:18.354Z,3.27
2023-01-22T05:49:45.149Z,2.90
2023-01-22T05:52:11.829Z,2.60
2023-01-22T05:54:39.474Z,3.00
2023-01-22T05:57:06.955Z,2.90
2023-01-22T05:59:33.651Z,3.30
2023-01-22T06:02:00.778Z,17.40
2023-01-22T06:04:27.562Z,3.57
2023-01-22T06:06:54.454Z,2.10
2023-01-22T06:09:21.398Z,1.67
2023-01-22T06:11:48.436Z,1.30
2023-01-22T06:14:15.209Z,1.30
2023-01-22T06:16:41.885Z,1.50
2023-01-22T06:19:08.951Z,1.50
2023-01-22T06:21:35.625Z,2.07
2023-01-22T06:24:02.449Z,2.60
2023-01-22T06:26:29.113Z,1.80
2023-01-22T06:28:55.765Z,2.00
2023-01-22T06:31:22.654Z,1.40
2023-01-22T06:33:49.392Z,1.90
2023-01-22T06:36:16.509Z,2.30
2023-01-22T06:38:43.212Z,2.50
2023-01-22T06:41:10.098Z,2.27
2023-01-22T06:43:37.694Z,2.47
2023-01-22T06:46:05.434Z,2.20
2023-01-22T06:48:32.185Z,2.10
2023-01-22T06:51:00.317Z,2.40
2023-01-22T06:53:27.875Z,2.60
2023-01-22T06:55:54.623Z,2.20
2023-01-22T06:58:21.897Z,2.50
2023-01-22T07:00:48.645Z,2.40
2023-01-22T07:03:16.289Z,2.57
2023-01-22T07:05:43.129Z,2.30
2023-01-22T07:08:14.670Z,2.17
2023-01-22T07:10:42.013Z,2.30
2023-01-22T07:13:10.259Z,2.33
2023-01-22T07:15:37.012Z,1.60
2023-01-22T07:18:03.753Z,1.97
2023-01-22T07:20:30.391Z,2.33
2023-01-22T07:22:59.944Z,2.47
2023-01-22T07:25:27.396Z,2.77
2023-01-22T07:28:00.128Z,2.67
2023-01-22T07:30:27.229Z,3.57
2023-01-22T07:32:54.081Z,3.77
2023-01-22T07:35:20.803Z,4.90
2023-01-22T07:37:58.724Z,3.60
2023-01-22T07:40:26.078Z,4.80
2023-01-22T07:42:53.802Z,4.53
2023-01-22T07:45:21.744Z,2.70
2023-01-22T07:47:58.922Z,2.20
2023-01-22T07:50:31.199Z,5.80
2023-01-22T07:53:00.720Z,6.03
2023-01-22T07:55:27.579Z,7.67
2023-01-22T07:58:03.647Z,5.60
2023-01-22T08:00:30.910Z,3.73
2023-01-22T08:02:57.594Z,2.70
2023-01-22T08:05:24.553Z,2.80
2023-01-22T08:07:51.299Z,1.70
2023-01-22T08:10:18.986Z,2.10
2023-01-22T08:12:46.642Z,2.20
2023-01-22T08:15:14.632Z,2.73
2023-01-22T08:17:42.472Z,3.07
2023-01-22T08:20:10.081Z,3.03
2023-01-22T08:22:36.929Z,2.90
2023-01-22T08:25:04.110Z,3.03
2023-01-22T08:27:30.889Z,2.53
2023-01-22T08:29:57.626Z,2.07
2023-01-22T08:32:24.396Z,1.77
2023-01-22T08:34:54.244Z,2.90
2023-01-22T08:37:22.216Z,3.27
2023-01-22T08:39:49.199Z,2.20
2023-01-22T08:42:16.586Z,2.50
2023-01-22T08:44:43.440Z,4.67
2023-01-22T08:47:11.449Z,3.90
2023-01-22T08:49:38.410Z,6.10
2023-01-22T08:52:05.585Z,4.93
2023-01-22T08:54:32.322Z,2.17
2023-01-22T08:56:59.132Z,1.87
2023-01-22T08:59:25.869Z,1.77
2023-01-22T09:01:52.666Z,1.40
2023-01-22T09:04:19.964Z,1.70
2023-01-22T09:06:46.775Z,2.10
2023-01-22T09:09:13.676Z,2.37
2023-01-22T09:11:40.868Z,2.67
2023-01-22T09:14:09.753Z,3.10
2023-01-22T09:16:36.775Z,3.13
2023-01-22T09:19:03.887Z,3.77
2023-01-22T09:21:30.688Z,3.67
2023-01-22T09:23:57.352Z,5.60
2023-01-22T09:26:24.157Z,5.13
2023-01-22T09:28:50.790Z,2.60
2023-01-22T09:31:18.500Z,2.63
2023-01-22T09:33:45.489Z,3.33
2023-01-22T09:36:14.701Z,2.40
2023-01-22T09:38:42.589Z,2.60
2023-01-22T09:41:24.418Z,2.03
2023-01-22T09:44:12.304Z,2.20
2023-01-22T09:47:09.532Z,1.87
2023-01-22T09:49:46.246Z,1.93
2023-01-22T09:52:12.915Z,2.10
2023-01-22T09:54:39.730Z,2.53
2023-01-22T09:57:19.861Z,2.00
2023-01-22T09:59:57.349Z,1.30
2023-01-22T10:02:36.618Z,1.40
2023-01-22T10:05:28.310Z,1.93
2023-01-22T10:08:09.618Z,1.70
2023-01-22T10:10:36.546Z,2.47
2023-01-22T10:13:14.908Z,3.83
2023-01-22T10:15:41.793Z,5.53
2023-01-22T10:18:31.700Z,4.33
2023-01-22T10:21:03.339Z,3.20
2023-01-22T10:23:33.322Z,2.37
2023-01-22T10:26:25.285Z,1.80
2023-01-22T10:28:56.855Z,2.77
2023-01-22T10:31:29.838Z,3.90
2023-01-22T10:34:02.240Z,2.80
2023-01-22T10:36:31.082Z,2.20
2023-01-22T10:39:15.170Z,3.53
2023-01-22T10:41:43.463Z,3.50
2023-01-22T10:44:16.126Z,3.63
2023-01-22T10:46:42.964Z,3.20
2023-01-22T10:49:21.654Z,3.97
2023-01-22T10:51:57.002Z,3.30
2023-01-22T10:54:32.829Z,3.40
2023-01-22T10:57:33.764Z,4.90
2023-01-22T11:00:16.165Z,7.00
2023-01-22T11:02:48.119Z,2.80
2023-01-22T11:05:20.868Z,3.07
2023-01-22T11:07:54.494Z,3.27
2023-01-22T11:10:29.934Z,3.63
2023-01-22T11:13:07.788Z,2.30
2023-01-22T11:15:48.307Z,2.23
2023-01-22T11:18:35.276Z,1.93
2023-01-22T11:21:05.463Z,1.63
2023-01-22T11:24:28.789Z,2.37
2023-01-22T11:27:19.587Z,2.10
2023-01-22T11:29:58.312Z,2.90
2023-01-22T11:32:39.634Z,3.07
2023-01-22T11:35:19.898Z,2.93
2023-01-22T11:38:24.461Z,3.00
2023-01-22T11:41:27.345Z,2.30
2023-01-22T11:44:18.965Z,1.70
2023-01-22T11:46:45.803Z,2.40
2023-01-22T11:49:40.549Z,1.93
2023-01-22T11:52:14.730Z,2.30
2023-01-22T11:54:59.552Z,2.17
2023-01-22T11:57:36.940Z,2.57
2023-01-22T12:00:22.245Z,2.63
2023-01-22T12:03:01.530Z,3.40
2023-01-22T12:05:36.462Z,4.20
2023-01-22T12:08:17.326Z,3.43
2023-01-22T12:11:03.689Z,2.90
2023-01-22T12:13:56.988Z,3.47
2023-01-22T12:16:44.174Z,3.20
2023-01-22T12:19:13.725Z,3.27
2023-01-22T12:21:52.471Z,5.50
2023-01-22T12:24:29.169Z,2.73
2023-01-22T12:27:07.103Z,2.63
2023-01-22T12:29:41.407Z,2.73
2023-01-22T12:32:12.112Z,2.10
2023-01-22T12:34:56.124Z,2.20
2023-01-22T12:37:42.802Z,2.10
2023-01-22T12:40:32.013Z,2.13
2023-01-22T12:43:02.371Z,2.23
2023-01-22T12:45:40.808Z,2.43
2023-01-22T12:48:24.268Z,1.77
2023-01-22T12:50:53.880Z,2.67
2023-01-22T12:53:36.223Z,2.40
2023-01-22T12:56:07.253Z,2.50
2023-01-22T12:58:39.856Z,2.83
2023-01-22T13:01:09.437Z,2.10
2023-01-22T13:03:37.307Z,2.30
2023-01-22T13:06:22.501Z,2.50
2023-01-22T13:08:49.274Z,3.07
2023-01-22T13:11:32.539Z,3.50
2023-01-22T13:14:29.048Z,3.07
2023-01-22T13:17:00.175Z,2.77
2023-01-22T13:19:29.991Z,2.60
2023-01-22T13:22:00.707Z,4.53
2023-01-22T13:24:27.615Z,5.13
2023-01-22T13:26:57.166Z,2.50
2023-01-22T13:29:32.932Z,3.40
2023-01-22T13:32:22.848Z,2.80
2023-01-22T13:34:49.498Z,2.50
2023-01-22T13:37:24.628Z,3.10
2023-01-22T13:39:51.443Z,2.70
2023-01-22T13:42:19.564Z,3.80
2023-01-22T13:44:51.727Z,3.30
2023-01-22T13:47:29.331Z,3.23
2023-01-22T13:49:56.119Z,2.73
2023-01-22T13:52:23.262Z,3.23
2023-01-22T13:55:03.590Z,4.30
2023-01-22T13:57:30.275Z,7.00
2023-01-22T13:59:59.531Z,4.37
2023-01-22T14:02:31.826Z,5.37
2023-01-22T14:04:59.432Z,3.80
2023-01-22T14:07:37.964Z,6.53
2023-01-22T14:10:19.128Z,6.40
2023-01-22T14:12:46.068Z,3.90
2023-01-22T14:15:18.550Z,4.73
2023-01-22T14:17:45.811Z,3.90
2023-01-22T14:20:13.002Z,3.67
2023-01-22T14:22:39.816Z,4.40
2023-01-22T14:25:07.090Z,3.70
2023-01-22T14:27:45.757Z,3.10
2023-01-22T14:30:16.530Z,3.97
2023-01-22T14:32:44.459Z,3.43
2023-01-22T14:35:19.425Z,2.80
2023-01-22T14:37:46.350Z,4.10
2023-01-22T14:40:15.419Z,5.43
2023-01-22T14:42:42.397Z,5.83
2023-01-22T14:45:10.363Z,11.03
2023-01-22T14:47:37.384Z,8.23
2023-01-22T14:50:04.853Z,6.23
2023-01-22T14:52:31.679Z,3.87
2023-01-22T14:54:58.648Z,3.70
2023-01-22T14:57:25.691Z,3.27
2023-01-22T14:59:52.469Z,2.63
2023-01-22T15:02:19.266Z,3.10
2023-01-22T15:04:46.268Z,3.00
2023-01-22T15:07:13.067Z,3.40
2023-01-22T15:09:40.164Z,3.20
2023-01-22T15:12:07.476Z,2.93
2023-01-22T15:14:34.282Z,3.57
2023-01-22T15:17:01.159Z,3.00
2023-01-22T15:19:29.428Z,3.10
2023-01-22T15:21:57.377Z,2.20
2023-01-22T15:24:26.532Z,3.13
2023-01-22T15:26:53.438Z,7.60
2023-01-22T15:29:20.224Z,4.07
2023-01-22T15:31:47.015Z,9.10
2023-01-22T15:34:13.735Z,5.50
2023-01-22T15:36:40.470Z,4.60
2023-01-22T15:39:07.839Z,2.73
2023-01-22T15:41:36.653Z,4.53
2023-01-22T15:44:05.666Z,15.37
2023-01-22T15:46:35.863Z,12.77
2023-01-22T15:49:04.755Z,4.30
2023-01-22T15:51:31.713Z,5.83
2023-01-22T15:54:01.400Z,10.40
2023-01-22T15:56:32.942Z,10.03
2023-01-22T15:59:00.072Z,4.53
2023-01-22T16:01:27.744Z,3.50
2023-01-22T16:03:55.346Z,3.60
2023-01-22T16:06:24.716Z,3.20
2023-01-22T16:08:53.022Z,4.50
2023-01-22T16:11:20.850Z,4.97
2023-01-22T16:13:48.095Z,5.33
2023-01-22T16:16:19.299Z,3.17
2023-01-22T16:18:47.255Z,2.73
2023-01-22T16:21:15.369Z,2.73
2023-01-22T16:23:43.886Z,2.87
2023-01-22T16:26:14.714Z,2.60
2023-01-22T16:28:41.792Z,3.23
2023-01-22T16:31:11.800Z,2.87
2023-01-22T16:33:42.023Z,2.13
2023-01-22T16:36:12.148Z,2.77
2023-01-22T16:38:40.083Z,2.93
2023-01-22T16:41:26.545Z,3.30
2023-01-22T16:44:00.287Z,4.10
2023-01-22T16:46:30.552Z,4.33
2023-01-22T16:49:22.522Z,3.77
2023-01-22T16:51:52.219Z,6.90
2023-01-22T16:54:28.040Z,4.60
2023-01-22T16:56:59.603Z,4.37
2023-01-22T16:59:27.181Z,2.53
2023-01-22T17:01:54.916Z,3.30
2023-01-22T17:04:21.665Z,3.03
2023-01-22T17:06:54.089Z,3.03
2023-01-22T17:09:35.872Z,5.00
2023-01-22T17:12:05.812Z,3.73
2023-01-22T17:14:36.366Z,4.90
2023-01-22T17:17:04.820Z,4.43
2023-01-22T17:19:31.649Z,3.63
2023-01-22T17:21:59.280Z,4.90
2023-01-22T17:24:27.762Z,6.00
2023-01-22T17:26:55.429Z,4.97
2023-01-22T17:29:22.138Z,5.10
2023-01-22T17:31:49.099Z,3.53
2023-01-22T17:34:16.665Z,3.33
2023-01-22T17:36:43.411Z,3.70
2023-01-22T17:39:15.817Z,3.40
2023-01-22T17:41:43.313Z,6.37
2023-01-22T17:44:10.364Z,6.30
2023-01-22T17:46:37.427Z,5.90
2023-01-22T17:49:04.676Z,23.07
2023-01-22T17:51:35.187Z,10.50
2023-01-22T17:54:03.735Z,7.17
2023-01-22T17:56:33.171Z,7.40
2023-01-22T17:59:02.360Z,9.33
2023-01-22T18:01:31.147Z,9.10
2023-01-22T18:03:59.572Z,9.17
2023-01-22T18:06:26.397Z,11.70
2023-01-22T18:08:53.310Z,12.70
2023-01-22T18:11:24.029Z,17.10
2023-01-22T18:13:50.927Z,3.77
2023-01-22T18:16:19.241Z,11.83
2023-01-22T18:18:46.082Z,8.90
2023-01-22T18:21:19.529Z,10.87
2023-01-22T18:23:47.307Z,7.47
2023-01-22T18:26:15.293Z,11.13
2023-01-22T18:28:42.433Z,11.00
2023-01-22T18:31:14.115Z,7.93
2023-01-22T18:33:42.440Z,7.60
2023-01-22T18:36:12.459Z,11.60
2023-01-22T18:38:40.151Z,7.27
2023-01-22T18:41:06.788Z,11.17
2023-01-22T18:43:33.505Z,9.53
2023-01-22T18:46:05.676Z,9.33
2023-01-22T18:48:32.693Z,6.20
2023-01-22T18:51:00.003Z,7.13
2023-01-22T18:53:26.858Z,6.70
2023-01-22T18:55:58.440Z,6.50
2023-01-22T18:58:30.401Z,6.47
2023-01-22T19:00:58.616Z,6.13
2023-01-22T19:03:26.617Z,6.00
2023-01-22T19:05:54.656Z,5.80
2023-01-22T19:08:22.886Z,5.60
2023-01-22T19:10:49.584Z,5.20
2023-01-22T19:13:16.623Z,4.53
2023-01-22T19:15:43.612Z,5.30
2023-01-22T19:18:10.743Z,5.00
2023-01-22T19:20:37.982Z,5.13
2023-01-22T19:23:05.282Z,4.80
2023-01-22T19:25:31.985Z,4.73
2023-01-22T19:27:58.776Z,4.47
2023-01-22T19:30:25.564Z,4.63
2023-01-22T19:32:55.887Z,5.83
2023-01-22T19:35:24.103Z,6.20
2023-01-22T19:37:52.428Z,6.17
2023-01-22T19:40:20.817Z,6.40
2023-01-22T19:42:48.409Z,7.63
2023-01-22T19:45:15.287Z,7.47
2023-01-22T19:47:42.008Z,6.70
2023-01-22T19:50:09.207Z,7.17
2023-01-22T19:52:35.888Z,6.27
2023-01-22T19:55:02.611Z,7.20
2023-01-22T19:57:30.226Z,7.13
2023-01-22T19:59:58.282Z,8.30
2023-01-22T20:02:25.279Z,8.63
2023-01-22T20:04:51.978Z,8.50
2023-01-22T20:07:18.720Z,8.00
2023-01-22T20:09:45.378Z,7.17
2023-01-22T20:12:14.556Z,7.23
2023-01-22T20:14:43.835Z,6.80
2023-01-22T20:17:13.032Z,7.73
2023-01-22T20:19:39.939Z,7.97
2023-01-22T20:22:07.238Z,8.10
2023-01-22T20:24:34.595Z,7.70
2023-01-22T20:27:01.488Z,8.47
2023-01-22T20:29:28.451Z,7.47
2023-01-22T20:31:56.817Z,8.10
2023-01-22T20:34:23.644Z,8.07
2023-01-22T20:36:50.595Z,8.80
2023-01-22T20:39:19.490Z,8.87
2023-01-22T20:41:46.512Z,8.17
2023-01-22T20:44:13.990Z,7.03
2023-01-22T20:46:41.409Z,8.47
2023-01-22T20:49:08.899Z,8.90
2023-01-22T20:51:35.783Z,8.63
2023-01-22T20:54:03.456Z,8.10
2023-01-22T20:56:32.667Z,8.13
2023-01-22T20:59:03.211Z,9.27
2023-01-22T21:01:30.464Z,8.37
2023-01-22T21:03:58.687Z,9.43
2023-01-22T21:06:28.511Z,8.20
2023-01-22T21:08:59.040Z,8.30
2023-01-22T21:11:28.409Z,7.23
2023-01-22T21:13:56.405Z,8.63
2023-01-22T21:16:26.409Z,9.47
2023-01-22T21:18:55.413Z,9.40
2023-01-22T21:21:22.122Z,7.83
2023-01-22T21:23:50.927Z,8.47
2023-01-22T21:26:22.642Z,8.87
2023-01-22T21:28:53.036Z,8.60
2023-01-22T21:31:21.098Z,7.83
2023-01-22T21:33:50.228Z,7.50
2023-01-22T21:36:18.414Z,9.03
2023-01-22T21:38:48.570Z,12.07
2023-01-22T21:41:17.758Z,12.07
2023-01-22T21:44:04.833Z,9.87
2023-01-22T21:46:41.683Z,8.97
2023-01-22T21:49:16.362Z,6.47
2023-01-22T21:51:49.321Z,6.43
2023-01-22T21:54:22.725Z,7.30
2023-01-22T21:56:50.103Z,6.00
2023-01-22T21:59:17.122Z,5.87
2023-01-22T22:01:44.915Z,6.13
2023-01-22T22:04:12.997Z,5.60
2023-01-22T22:06:40.301Z,5.10
2023-01-22T22:09:11.327Z,5.27
2023-01-22T22:11:38.018Z,4.67
2023-01-22T22:14:05.813Z,5.23
2023-01-22T22:16:33.736Z,5.83
2023-01-22T22:19:00.624Z,5.37
2023-01-22T22:21:27.383Z,5.63
2023-01-22T22:23:57.143Z,4.70
2023-01-22T22:26:24.874Z,5.07
2023-01-22T22:28:51.991Z,5.63
2023-01-22T22:31:19.113Z,5.20
2023-01-22T22:33:48.027Z,4.93
2023-01-22T22:36:16.833Z,6.10
2023-01-22T22:38:43.969Z,6.60
2023-01-22T22:41:13.261Z,5.80
2023-01-22T22:43:44.326Z,5.43
2023-01-22T22:46:14.559Z,6.00
2023-01-22T22:48:42.075Z,5.93
2023-01-22T22:51:13.984Z,6.77
2023-01-22T22:53:41.261Z,5.83
2023-01-22T22:56:09.413Z,7.03
2023-01-22T22:58:36.995Z,7.40
2023-01-22T23:01:12.845Z,7.43
2023-01-22T23:03:40.896Z,7.13
2023-01-22T23:06:12.074Z,6.80
2023-01-22T23:08:44.898Z,7.17
2023-01-22T23:11:14.013Z,6.37
2023-01-22T23:13:44.549Z,8.00
2023-01-22T23:16:14.158Z,6.90
2023-01-22T23:18:41.428Z,6.47
2023-01-22T23:21:11.745Z,6.60
2023-01-22T23:23:39.225Z,6.30
2023-01-22T23:26:10.199Z,6.97
2023-01-22T23:28:37.083Z,5.80
2023-01-22T23:31:09.438Z,5.40
2023-01-22T23:33:36.334Z,5.67
2023-01-22T23:36:09.940Z,5.23
2023-01-22T23:38:37.068Z,6.50
2023-01-22T23:41:05.489Z,5.73
2023-01-22T23:43:32.608Z,6.03
2023-01-22T23:46:00.084Z,6.57
2023-01-22T23:48:26.974Z,5.93
2023-01-22T23:50:54.147Z,5.83
2023-01-22T23:53:22.185Z,5.60
2023-01-22T23:55:49.350Z,5.57
2023-01-22T23:58:16.119Z,6.13
